createdAt,value
2017-10-27T00:01:13.332Z,70.80
2017-10-27T00:03:40.997Z,72.10
2017-10-27T00:06:09.786Z,70.80
2017-10-27T00:08:37.565Z,71.10
2017-10-27T00:11:05.626Z,72.10
2017-10-27T00:13:33.379Z,71.30
2017-10-27T00:16:01.931Z,70.20
2017-10-27T00:18:30.431Z,70.50
2017-10-27T00:20:58.241Z,75.20
2017-10-27T00:23:26.382Z,70.20
2017-10-27T00:25:54.541Z,69.70
2017-10-27T00:28:22.277Z,72.90
2017-10-27T00:30:49.956Z,70.80
2017-10-27T00:33:18.112Z,71.90
2017-10-27T00:35:46.292Z,70.80
2017-10-27T00:38:14.702Z,71.60
2017-10-27T00:40:42.425Z,74.70
2017-10-27T00:43:10.141Z,72.20
2017-10-27T00:45:38.255Z,72.60
2017-10-27T00:48:06.696Z,72.10
2017-10-27T00:50:34.421Z,72.90
2017-10-27T00:53:02.509Z,72.20
2017-10-27T00:55:30.952Z,70.80
2017-10-27T00:57:58.689Z,73.50
2017-10-27T01:00:26.373Z,70.60
2017-10-27T01:02:54.670Z,70.90
2017-10-27T01:05:23.152Z,70.90
2017-10-27T01:07:50.934Z,74.00
2017-10-27T01:10:19.517Z,71.40
2017-10-27T01:12:47.342Z,71.50
2017-10-27T01:15:15.436Z,73.50
2017-10-27T01:17:43.101Z,76.90
2017-10-27T01:20:10.860Z,75.40
2017-10-27T01:22:38.930Z,71.90
2017-10-27T01:25:06.663Z,73.20
2017-10-27T01:27:34.298Z,73.80
2017-10-27T01:30:02.052Z,72.20
2017-10-27T01:32:29.784Z,72.20
2017-10-27T01:34:57.525Z,73.90
2017-10-27T01:37:25.208Z,72.30
2017-10-27T01:39:52.964Z,75.90
2017-10-27T01:42:20.618Z,73.00
2017-10-27T01:44:48.291Z,74.50
2017-10-27T01:47:16.055Z,72.10
2017-10-27T01:49:44.496Z,72.90
2017-10-27T01:52:13.000Z,72.10
2017-10-27T01:54:40.782Z,73.30
2017-10-27T01:57:08.882Z,71.80
2017-10-27T01:59:36.624Z,74.30
2017-10-27T02:02:04.413Z,71.10
2017-10-27T02:04:32.036Z,71.60
2017-10-27T02:06:59.785Z,69.50
2017-10-27T02:09:27.568Z,69.30
2017-10-27T02:11:55.343Z,69.00
2017-10-27T02:14:23.078Z,69.00
2017-10-27T02:16:50.850Z,69.20
2017-10-27T02:19:18.609Z,68.90
2017-10-27T02:21:46.361Z,68.80
2017-10-27T02:24:14.545Z,68.70
2017-10-27T02:26:42.273Z,69.60
2017-10-27T02:29:10.058Z,70.10
2017-10-27T02:31:37.849Z,73.60
2017-10-27T02:34:05.664Z,70.20
2017-10-27T02:36:33.485Z,72.20
2017-10-27T02:39:01.253Z,70.60
2017-10-27T02:41:28.877Z,72.60
2017-10-27T02:43:57.043Z,70.60
2017-10-27T02:46:24.947Z,71.80
2017-10-27T02:48:53.128Z,69.90
2017-10-27T02:51:20.999Z,72.40
2017-10-27T02:53:48.621Z,70.30
2017-10-27T02:56:16.379Z,71.00
2017-10-27T02:58:44.489Z,70.80
2017-10-27T03:01:12.910Z,71.30
2017-10-27T03:03:41.138Z,73.20
2017-10-27T03:06:09.487Z,72.40
2017-10-27T03:08:37.216Z,73.90
2017-10-27T03:11:04.902Z,71.90
2017-10-27T03:13:32.602Z,71.50
2017-10-27T03:16:01.069Z,71.50
2017-10-27T03:18:28.801Z,71.50
2017-10-27T03:20:56.586Z,72.70
2017-10-27T03:23:24.358Z,73.00
2017-10-27T03:25:52.898Z,70.60
2017-10-27T03:28:20.819Z,70.70
2017-10-27T03:30:48.562Z,70.50
2017-10-27T03:33:16.276Z,69.60
2017-10-27T03:35:44.693Z,68.40
2017-10-27T03:38:12.441Z,68.80
2017-10-27T03:40:40.364Z,70.70
2017-10-27T03:43:08.519Z,69.40
2017-10-27T03:45:37.473Z,70.10
2017-10-27T03:48:05.137Z,70.90
2017-10-27T03:50:32.811Z,70.60
2017-10-27T03:53:00.913Z,70.00
2017-10-27T03:55:28.665Z,70.80
2017-10-27T03:57:57.082Z,70.40
2017-10-27T04:00:25.532Z,70.90
2017-10-27T04:02:53.261Z,71.20
2017-10-27T04:05:21.742Z,70.70
2017-10-27T04:07:49.512Z,71.40
2017-10-27T04:10:17.193Z,70.90
2017-10-27T04:12:44.938Z,71.60
2017-10-27T04:15:14.127Z,70.30
2017-10-27T04:17:42.693Z,70.20
2017-10-27T04:20:10.365Z,72.50
2017-10-27T04:22:38.109Z,70.90
2017-10-27T04:25:05.778Z,69.20
2017-10-27T04:27:33.442Z,68.90
2017-10-27T04:30:01.197Z,71.90
2017-10-27T04:32:28.865Z,70.80
2017-10-27T04:34:58.084Z,71.80
2017-10-27T04:37:25.765Z,72.70
2017-10-27T04:39:53.556Z,72.30
2017-10-27T04:42:21.545Z,71.70
2017-10-27T04:47:24.767Z,70.90
2017-10-27T04:49:53.268Z,69.80
2017-10-27T04:52:22.450Z,70.00
2017-10-27T04:54:50.216Z,70.70
2017-10-27T04:57:17.959Z,71.80
2017-10-27T04:59:45.726Z,74.40
2017-10-27T05:02:14.929Z,72.90
2017-10-27T05:04:42.655Z,70.00
2017-10-27T05:07:10.439Z,70.00
2017-10-27T05:09:38.939Z,70.90
2017-10-27T05:12:07.539Z,73.00
2017-10-27T05:14:35.389Z,73.10
2017-10-27T05:17:09.919Z,74.60
2017-10-27T05:19:43.247Z,75.30
2017-10-27T05:22:16.726Z,76.50
2017-10-27T05:24:44.528Z,77.30
2017-10-27T05:27:12.304Z,75.50
2017-10-27T05:29:40.151Z,74.80
2017-10-27T05:32:07.810Z,74.60
2017-10-27T05:34:35.489Z,74.60
2017-10-27T05:37:03.163Z,73.50
2017-10-27T05:39:30.969Z,73.30
2017-10-27T05:41:58.775Z,72.60
2017-10-27T05:44:26.942Z,73.00
2017-10-27T05:46:54.836Z,73.00
2017-10-27T05:49:22.601Z,72.70
2017-10-27T05:51:50.467Z,72.60
2017-10-27T05:54:18.310Z,73.00
2017-10-27T05:56:47.446Z,73.50
2017-10-27T05:59:15.812Z,73.80
2017-10-27T06:01:43.889Z,74.30
2017-10-27T06:04:11.545Z,74.90
2017-10-27T06:06:39.177Z,74.70
2017-10-27T06:09:06.941Z,74.50
2017-10-27T06:11:34.609Z,74.70
2017-10-27T06:14:02.504Z,75.60
2017-10-27T06:16:30.247Z,75.00
2017-10-27T06:18:58.001Z,75.80
2017-10-27T06:21:25.783Z,74.80
2017-10-27T06:23:53.637Z,75.10
2017-10-27T06:26:21.497Z,75.80
2017-10-27T06:28:49.683Z,76.10
2017-10-27T06:31:18.331Z,76.10
2017-10-27T06:33:46.106Z,75.90
2017-10-27T06:36:13.972Z,76.90
2017-10-27T06:38:42.585Z,77.50
2017-10-27T06:41:10.446Z,80.70
2017-10-27T06:43:38.220Z,78.70
2017-10-27T06:46:06.473Z,78.20
2017-10-27T06:48:34.358Z,77.80
2017-10-27T06:51:02.329Z,77.50
2017-10-27T06:53:30.238Z,77.20
2017-10-27T06:55:58.039Z,77.20
2017-10-27T06:58:25.793Z,77.00
2017-10-27T07:00:53.943Z,76.90
2017-10-27T07:03:21.800Z,77.80
2017-10-27T07:05:50.719Z,77.50
2017-10-27T07:08:18.581Z,77.60
2017-10-27T07:10:46.352Z,78.50
2017-10-27T07:13:14.529Z,78.40
2017-10-27T07:15:42.312Z,78.90
2017-10-27T07:18:10.195Z,78.50
2017-10-27T07:20:37.944Z,78.90
2017-10-27T07:23:05.585Z,78.80
2017-10-27T07:25:33.342Z,78.70
2017-10-27T07:28:02.218Z,79.00
2017-10-27T07:30:29.985Z,79.00
2017-10-27T07:32:57.721Z,78.60
2017-10-27T07:35:25.511Z,77.70
2017-10-27T07:37:53.177Z,77.10
2017-10-27T07:40:21.703Z,75.70
2017-10-27T07:42:49.438Z,75.90
2017-10-27T07:45:17.180Z,76.50
2017-10-27T07:47:44.839Z,75.70
2017-10-27T07:50:12.572Z,75.50
2017-10-27T07:52:40.376Z,75.20
2017-10-27T07:55:08.201Z,75.20
2017-10-27T08:00:15.330Z,74.50
2017-10-27T08:02:44.294Z,73.50
2017-10-27T08:05:12.113Z,71.80
2017-10-27T08:07:39.885Z,71.40
2017-10-27T08:10:07.601Z,70.40
2017-10-27T08:12:35.290Z,71.20
2017-10-27T08:15:02.977Z,69.50
2017-10-27T08:17:30.690Z,69.20
2017-10-27T08:19:58.454Z,70.20
2017-10-27T08:22:26.715Z,70.00
2017-10-27T08:24:54.514Z,69.90
2017-10-27T08:27:23.398Z,68.80
2017-10-27T08:29:51.178Z,69.40
2017-10-27T08:32:18.886Z,70.10
2017-10-27T08:34:47.111Z,70.80
2017-10-27T08:37:15.099Z,71.40
2017-10-27T08:39:44.021Z,71.20
2017-10-27T08:44:46.971Z,71.80
2017-10-27T08:47:14.704Z,72.20
2017-10-27T08:49:43.675Z,73.00
2017-10-27T08:54:40.726Z,74.50
2017-10-27T08:57:08.537Z,73.80
2017-10-27T08:59:37.127Z,74.40
2017-10-27T09:02:04.837Z,75.00
2017-10-27T09:04:32.663Z,74.40
2017-10-27T09:07:00.630Z,75.90
2017-10-27T09:09:29.690Z,73.90
2017-10-27T09:11:57.862Z,73.90
2017-10-27T09:14:25.674Z,73.60
2017-10-27T09:16:53.363Z,74.40
2017-10-27T09:19:21.043Z,74.50
2017-10-27T09:21:49.108Z,74.50
2017-10-27T09:24:16.873Z,73.40
2017-10-27T09:26:44.565Z,73.00
2017-10-27T09:29:12.383Z,72.80
2017-10-27T09:31:40.410Z,72.30
2017-10-27T09:34:08.563Z,72.40
2017-10-27T09:36:37.975Z,70.80
2017-10-27T09:39:07.358Z,73.10
2017-10-27T09:41:38.437Z,72.20
2017-10-27T09:44:06.365Z,73.00
2017-10-27T09:46:34.537Z,72.60
2017-10-27T09:49:03.047Z,71.00
2017-10-27T09:51:30.983Z,72.60
2017-10-27T09:53:59.799Z,72.40
2017-10-27T09:56:27.636Z,72.60
2017-10-27T09:58:56.110Z,71.50
2017-10-27T10:01:25.586Z,71.30
2017-10-27T10:03:53.450Z,71.50
2017-10-27T10:06:21.110Z,71.30
2017-10-27T10:08:48.920Z,72.50
2017-10-27T10:11:16.695Z,71.00
2017-10-27T10:13:44.523Z,71.00
2017-10-27T10:16:13.726Z,71.50
2017-10-27T10:18:42.281Z,71.40
2017-10-27T10:21:10.046Z,73.00
2017-10-27T10:23:38.568Z,72.00
2017-10-27T10:26:06.427Z,72.00
2017-10-27T10:28:34.084Z,71.10
2017-10-27T10:31:01.761Z,70.60
2017-10-27T10:33:29.409Z,69.80
2017-10-27T10:35:57.585Z,67.30
2017-10-27T10:38:25.227Z,66.50
2017-10-27T10:43:23.353Z,70.10
2017-10-27T10:45:51.203Z,71.70
2017-10-27T10:48:18.962Z,71.60
2017-10-27T10:50:46.915Z,70.90
2017-10-27T10:53:15.962Z,71.30
2017-10-27T10:55:43.853Z,71.60
2017-10-27T10:58:13.177Z,71.60
2017-10-27T11:00:40.991Z,71.10
2017-10-27T11:03:08.898Z,71.50
2017-10-27T11:05:36.581Z,70.40
2017-10-27T11:08:04.333Z,71.10
2017-10-27T11:10:32.022Z,71.40
2017-10-27T11:13:00.566Z,71.70
2017-10-27T11:15:28.349Z,72.00
2017-10-27T11:17:56.205Z,70.80
2017-10-27T11:20:24.865Z,70.60
2017-10-27T11:22:52.584Z,72.30
2017-10-27T11:25:20.409Z,72.50
2017-10-27T11:27:48.861Z,68.20
2017-10-27T11:30:16.570Z,68.70
2017-10-27T11:32:44.639Z,65.50
2017-10-27T11:35:13.320Z,62.40
2017-10-27T11:37:41.099Z,59.50
2017-10-27T11:40:08.962Z,58.00
2017-10-27T11:42:36.798Z,58.80
2017-10-27T11:45:04.606Z,55.60
2017-10-27T11:47:33.854Z,55.10
2017-10-27T11:50:01.759Z,56.80
2017-10-27T11:52:29.613Z,59.30
2017-10-27T11:54:57.265Z,58.50
2017-10-27T11:57:25.003Z,55.70
2017-10-27T11:59:52.910Z,55.50
2017-10-27T12:02:20.794Z,52.10
2017-10-27T12:04:48.704Z,52.70
2017-10-27T12:07:16.803Z,53.00
2017-10-27T12:09:45.906Z,50.60
2017-10-27T12:12:13.732Z,50.50
2017-10-27T12:14:41.561Z,46.50
2017-10-27T12:17:09.686Z,48.10
2017-10-27T12:19:37.393Z,51.50
2017-10-27T12:22:05.075Z,49.00
2017-10-27T12:24:32.757Z,48.10
2017-10-27T12:27:00.646Z,49.00
2017-10-27T12:29:28.569Z,46.20
2017-10-27T12:31:56.470Z,48.50
2017-10-27T12:34:25.345Z,46.50
2017-10-27T12:36:57.238Z,46.50
2017-10-27T12:39:25.109Z,46.50
2017-10-27T12:41:52.890Z,42.80
2017-10-27T12:44:20.675Z,44.40
2017-10-27T12:46:48.490Z,45.20
2017-10-27T12:49:17.080Z,42.40
2017-10-27T12:51:45.345Z,44.20
2017-10-27T12:54:13.065Z,45.30
2017-10-27T12:56:40.688Z,45.20
2017-10-27T12:59:08.457Z,48.60
2017-10-27T13:01:36.553Z,46.40
2017-10-27T13:04:04.213Z,45.00
2017-10-27T13:06:32.217Z,43.70
2017-10-27T13:09:00.370Z,45.60
2017-10-27T13:11:28.015Z,44.00
2017-10-27T13:13:55.614Z,41.50
2017-10-27T13:16:23.847Z,42.50
2017-10-27T13:18:51.453Z,42.50
2017-10-27T13:21:19.141Z,43.00
2017-10-27T13:26:17.460Z,41.50
2017-10-27T13:28:45.196Z,42.30
2017-10-27T13:31:12.922Z,43.80
2017-10-27T13:33:40.578Z,44.20
2017-10-27T13:36:08.716Z,43.70
2017-10-27T13:38:36.325Z,41.20
2017-10-27T13:41:03.953Z,39.60
2017-10-27T13:43:31.698Z,41.30
2017-10-27T13:46:00.101Z,42.20
2017-10-27T13:48:28.179Z,42.10
2017-10-27T13:50:56.294Z,41.50
2017-10-27T13:53:24.098Z,42.90
2017-10-27T13:55:52.199Z,41.90
2017-10-27T13:58:20.145Z,41.80
2017-10-27T14:00:48.014Z,41.50
2017-10-27T14:03:16.273Z,42.40
2017-10-27T14:05:44.096Z,43.00
2017-10-27T14:08:12.653Z,44.70
2017-10-27T14:10:40.490Z,46.00
2017-10-27T14:13:08.265Z,45.90
2017-10-27T14:15:36.076Z,46.30
2017-10-27T14:18:04.334Z,46.90
2017-10-27T14:20:31.996Z,45.20
2017-10-27T14:22:59.882Z,45.70
2017-10-27T14:25:28.184Z,45.30
2017-10-27T14:27:56.837Z,44.70
2017-10-27T14:32:54.250Z,43.60
2017-10-27T14:35:22.129Z,43.30
2017-10-27T14:37:50.008Z,41.50
2017-10-27T14:40:17.671Z,41.30
2017-10-27T14:42:45.329Z,38.10
2017-10-27T14:45:13.064Z,39.00
2017-10-27T14:47:40.945Z,40.40
2017-10-27T14:50:10.262Z,40.30
2017-10-27T14:52:38.081Z,40.30
2017-10-27T14:55:05.961Z,40.80
2017-10-27T14:57:34.896Z,40.60
2017-10-27T15:00:02.728Z,40.50
2017-10-27T15:02:30.661Z,41.90
2017-10-27T15:04:58.856Z,39.70
2017-10-27T15:07:26.802Z,40.90
2017-10-27T15:09:54.598Z,40.60
2017-10-27T15:12:22.531Z,40.50
2017-10-27T15:14:51.140Z,41.30
2017-10-27T15:17:19.975Z,40.20
2017-10-27T15:19:47.713Z,40.90
2017-10-27T15:22:15.529Z,40.80
2017-10-27T15:24:43.365Z,41.30
2017-10-27T15:27:11.297Z,42.50
2017-10-27T15:29:39.193Z,41.80
2017-10-27T15:32:07.046Z,42.10
2017-10-27T15:34:35.675Z,42.30
2017-10-27T15:37:03.369Z,42.40
2017-10-27T15:39:31.017Z,43.50
2017-10-27T15:41:59.150Z,42.60
2017-10-27T15:46:56.649Z,42.70
2017-10-27T15:49:24.550Z,43.00
2017-10-27T15:51:52.828Z,42.70
2017-10-27T15:54:20.622Z,43.40
2017-10-27T15:56:48.411Z,43.80
2017-10-27T15:59:16.598Z,44.60
2017-10-27T16:01:44.907Z,44.80
2017-10-27T16:04:13.681Z,45.00
2017-10-27T16:06:42.304Z,45.20
2017-10-27T16:09:11.320Z,45.60
2017-10-27T16:11:39.116Z,45.40
2017-10-27T16:14:07.400Z,45.70
2017-10-27T16:16:36.381Z,45.70
2017-10-27T16:19:05.424Z,46.30
2017-10-27T16:21:33.212Z,46.90
2017-10-27T16:24:01.348Z,47.10
2017-10-27T16:26:29.246Z,47.80
2017-10-27T16:28:57.058Z,47.80
2017-10-27T16:31:24.805Z,48.40
2017-10-27T16:33:53.075Z,49.10
2017-10-27T16:36:20.706Z,49.00
2017-10-27T16:38:49.131Z,49.00
2017-10-27T16:41:17.277Z,49.30
2017-10-27T16:43:45.360Z,49.20
2017-10-27T16:46:13.556Z,49.20
2017-10-27T16:48:42.512Z,49.40
2017-10-27T16:51:10.397Z,49.60
2017-10-27T16:53:39.016Z,49.60
2017-10-27T16:56:07.587Z,49.10
2017-10-27T16:58:36.446Z,49.70
2017-10-27T17:01:04.207Z,49.30
2017-10-27T17:03:31.965Z,49.50
2017-10-27T17:05:59.803Z,48.10
2017-10-27T17:08:29.021Z,47.90
2017-10-27T17:10:56.824Z,47.80
2017-10-27T17:13:24.767Z,47.90
2017-10-27T17:15:53.462Z,48.10
2017-10-27T17:18:21.872Z,48.50
2017-10-27T17:23:18.871Z,49.10
2017-10-27T17:25:46.574Z,48.30
2017-10-27T17:28:15.014Z,48.90
2017-10-27T17:30:42.673Z,49.00
2017-10-27T17:35:40.093Z,49.80
2017-10-27T17:38:08.050Z,50.10
2017-10-27T17:40:35.883Z,50.00
2017-10-27T17:43:03.571Z,50.70
2017-10-27T17:45:31.997Z,50.30
2017-10-27T17:47:59.767Z,50.00
2017-10-27T17:50:27.606Z,51.40
2017-10-27T17:52:55.849Z,50.60
2017-10-27T17:55:23.817Z,50.40
2017-10-27T17:57:52.474Z,51.30
2017-10-27T18:00:20.422Z,50.50
2017-10-27T18:02:48.309Z,50.60
2017-10-27T18:05:17.461Z,50.40
2017-10-27T18:07:45.182Z,53.70
2017-10-27T18:10:12.912Z,51.30
2017-10-27T18:12:40.617Z,53.00
2017-10-27T18:15:08.261Z,51.90
2017-10-27T18:17:36.522Z,51.40
2017-10-27T18:20:04.956Z,51.60
2017-10-27T18:22:32.765Z,53.80
2017-10-27T18:25:00.566Z,52.30
2017-10-27T18:27:28.374Z,51.80
2017-10-27T18:29:56.178Z,53.50
2017-10-27T18:32:23.919Z,56.50
2017-10-27T18:34:52.456Z,54.20
2017-10-27T18:37:20.394Z,53.90
2017-10-27T18:39:48.329Z,55.60
2017-10-27T18:42:16.208Z,55.70
2017-10-27T18:44:44.970Z,54.30
2017-10-27T18:47:13.037Z,55.00
2017-10-27T18:49:40.740Z,57.10
2017-10-27T18:52:09.020Z,55.70
2017-10-27T18:54:36.805Z,56.10
2017-10-27T18:57:04.540Z,59.90
2017-10-27T18:59:33.193Z,55.70
2017-10-27T19:02:02.132Z,56.20
2017-10-27T19:04:31.229Z,56.60
2017-10-27T19:07:00.281Z,56.40
2017-10-27T19:09:29.179Z,56.70
2017-10-27T19:11:57.472Z,57.10
2017-10-27T19:16:54.831Z,57.00
2017-10-27T19:19:23.094Z,56.90
2017-10-27T19:21:51.665Z,57.00
2017-10-27T19:24:19.925Z,57.30
2017-10-27T19:26:48.479Z,57.80
2017-10-27T19:29:17.570Z,58.10
2017-10-27T19:31:45.775Z,58.30
2017-10-27T19:34:14.304Z,58.50
2017-10-27T19:36:42.341Z,58.20
2017-10-27T19:39:10.545Z,58.50
2017-10-27T19:41:39.166Z,58.80
2017-10-27T19:44:07.569Z,58.90
2017-10-27T19:46:35.795Z,59.30
2017-10-27T19:49:04.864Z,59.10
2017-10-27T19:51:33.595Z,59.50
2017-10-27T19:54:01.774Z,59.60
2017-10-27T19:56:29.990Z,60.00
2017-10-27T19:58:58.480Z,60.10
2017-10-27T20:01:27.737Z,60.20
2017-10-27T20:03:56.751Z,60.50
2017-10-27T20:06:25.351Z,60.50
2017-10-27T20:08:54.065Z,60.80
2017-10-27T20:11:22.409Z,60.90
2017-10-27T20:13:51.057Z,61.00
2017-10-27T20:16:19.896Z,61.00
2017-10-27T20:18:48.453Z,60.80
2017-10-27T20:21:16.955Z,60.70
2017-10-27T20:23:45.321Z,60.30
2017-10-27T20:28:43.220Z,60.50
2017-10-27T20:31:11.789Z,60.60
2017-10-27T20:33:40.435Z,60.40
2017-10-27T20:36:08.940Z,60.60
2017-10-27T20:38:37.572Z,60.80
2017-10-27T20:41:06.059Z,61.20
2017-10-27T20:43:34.702Z,61.20
2017-10-27T20:46:03.198Z,61.30
2017-10-27T20:48:31.994Z,61.60
2017-10-27T20:51:00.582Z,61.50
2017-10-27T20:53:28.863Z,61.20
2017-10-27T20:55:57.116Z,61.30
2017-10-27T20:58:25.696Z,61.60
2017-10-27T21:00:53.941Z,61.50
2017-10-27T21:03:22.515Z,60.40
2017-10-27T21:05:51.046Z,60.70
2017-10-27T21:08:20.377Z,60.60
2017-10-27T21:10:48.857Z,61.00
2017-10-27T21:13:17.419Z,60.90
2017-10-27T21:15:45.632Z,61.10
2017-10-27T21:18:14.165Z,61.20
2017-10-27T21:20:42.738Z,60.90
2017-10-27T21:23:11.996Z,61.50
2017-10-27T21:25:40.200Z,62.30
2017-10-27T21:28:08.693Z,62.30
2017-10-27T21:30:37.941Z,62.50
2017-10-27T21:33:06.405Z,62.40
2017-10-27T21:35:34.927Z,62.10
2017-10-27T21:38:03.630Z,62.40
2017-10-27T21:40:32.322Z,62.90
2017-10-27T21:43:00.590Z,63.10
2017-10-27T21:45:29.054Z,63.10
2017-10-27T21:47:57.671Z,63.00
2017-10-27T21:50:26.229Z,62.90
2017-10-27T21:52:54.783Z,62.90
2017-10-27T21:55:23.441Z,62.70
2017-10-27T21:57:52.501Z,63.00
2017-10-27T22:00:21.152Z,62.90
2017-10-27T22:02:49.741Z,62.90
2017-10-27T22:05:17.869Z,63.00
2017-10-27T22:07:46.459Z,63.00
2017-10-27T22:10:15.074Z,63.10
2017-10-27T22:12:43.588Z,62.80
2017-10-27T22:15:12.443Z,62.60
2017-10-27T22:22:39.508Z,62.10
2017-10-27T22:25:08.990Z,62.20
2017-10-27T22:27:37.340Z,62.10
2017-10-27T22:30:05.415Z,62.60
2017-10-27T22:32:33.962Z,62.20
2017-10-27T22:35:02.666Z,62.50
2017-10-27T22:37:30.897Z,62.50
2017-10-27T22:39:59.389Z,62.30
2017-10-27T22:42:27.961Z,62.10
2017-10-27T22:44:56.363Z,61.70
2017-10-27T22:47:25.080Z,61.90
2017-10-27T22:49:53.760Z,62.80
2017-10-27T22:52:22.063Z,63.30
2017-10-27T22:54:50.471Z,63.20
2017-10-27T22:57:19.405Z,63.20
2017-10-27T22:59:48.070Z,63.20
2017-10-27T23:02:16.799Z,63.50
2017-10-27T23:04:45.047Z,63.70
2017-10-27T23:07:13.191Z,64.00
2017-10-27T23:09:49.409Z,64.20
2017-10-27T23:14:46.713Z,64.90
2017-10-27T23:17:15.119Z,64.80
2017-10-27T23:19:43.117Z,64.90
2017-10-27T23:22:11.454Z,64.80
2017-10-27T23:24:39.482Z,64.40
2017-10-27T23:29:37.157Z,65.00
2017-10-27T23:32:06.253Z,65.40
2017-10-27T23:34:34.630Z,65.50
2017-10-27T23:37:02.988Z,65.50
2017-10-27T23:39:30.614Z,76.80
2017-10-27T23:41:58.585Z,66.70
2017-10-27T23:44:27.011Z,66.90
2017-10-27T23:46:55.333Z,66.90
2017-10-27T23:49:23.720Z,66.90
2017-10-27T23:51:52.125Z,66.90
2017-10-27T23:54:20.480Z,67.00
2017-10-27T23:56:48.552Z,67.00
2017-10-27T23:59:20.714Z,67.50
